Aérodrome :
LOGIN :

S'inscrire | Disclaimer

   EN    FR    IT 

 










Légende :    VFR   VFR Marginal   IFR   IFR Intensif   IFR Très Intensif
Visi : 
Plafond : 
>= 8 km
>= 3000ft
5 à 8 km
1000 à 3000 ft
1500m à 5 km
500 à 1000 ft
800 à 1500m
200 à 500 ft
< 800m
< 200 ft
Symboles :   Orages  Brouillard  Fortes neiges  Fortes précipitations  Vent > 20 kt
SIGMETs :   Divers  Orages  Givrage  Turbulence  Onde Orograph.  Cendres Volcan.







- Altitude de l'aérodrome : 209 ft
- Code IATA : CLY
- Voir les cartes d'approche


LFKC - Calvi

DERNIER METAR :
  • 270130Z AUTO 18004KT 150V280 CAVOK 21/15 Q1006 NOSIG

METARs EXPIRÉS :
  • 270100Z AUTO 00000KT 9999 FEW100 22/16 Q1007 NOSIG
  • 270030Z AUTO VRB03KT 9999 FEW100 SCT130 BKN150 22/17 Q1007 NOSIG
  • 270000Z AUTO VRB03KT CAVOK 23/18 Q1007 NOSIG
  • 262330Z AUTO 14003KT 9999 FEW052 BKN150 24/19 Q1008 NOSIG
  • 262300Z AUTO 18003KT CAVOK 24/19 Q1008 NOSIG

TAF TAF LFKC
Valide du 26 à 18h jusqu'au 27 à 18h UTC


261700Z 2618/2718 18005KT CAVOK
BECMG 2706/2709 34010KT 9999 FEW060 TX31/2712Z TN21/2704Z
ATIS : +33 4 95 65 82 49
Pas de NOTAMs connus pour ce terrain.



MET'MAP, la Météo Aéronautique d'un coup d'oeil ! - Copyright ORBIFLY Décembre 2007 - Disclaimer

ORBIFLY MET'MAP TEAM :

Programmation & Développement : Alexandra Zaïnal
Conception & Développement : Baudouin d'Aumeries
Co-Programmation & Développement : Marc-Olivier Méhu
Soutien technique & logistique : Manuel Goepfert

Contact : metmap@orbifly.com




SOURCES & CREDITS :

   NOAA